Latest Coastal Weather Observations for Swan Island

IDT60701

Issued at 9:52 am EDT Monday 1 March 2021 (issued every 10 minutes, with the page automatically refreshed every 10 minutes)

About coastal observations | Map of coastal stations | Coastal observations for TAS | Marine services | Other Formats
Station Details ID: 092123 Name: SWAN ISLAND Lat: -40.73 Lon: 148.12 Height: 15.0 m
Data from the previous 72 hours. | See also: Recent months at Swan Island
Date/Time
EDT
Wind Sea
Height
m
Swell Vis
km
Cloud Weather Temp
°C
Press
MSL
hPa
Rain since
9am
mm
Dir  Spd
kts
Gust
kts
Height
m
Period
s
Dir
01/09:30am WNW 7 9 - - - - - - - 19.9 1007.3 0.0
01/09:00am WNW 6 9 - - - - - - - 19.1 1007.4 0.0
01/08:30am W 4 5 - - - - - - - 17.6 1007.6 0.0
01/08:00am WNW 6 10 - - - - - - - 17.5 1007.6 0.0
01/07:30am W 3 5 - - - - - - - 17.1 1007.6 0.0
01/07:00am NW 8 10 - - - - - - - 17.6 1007.6 0.0
01/06:30am NW 7 11 - - - - - - - 17.5 1007.6 0.0
01/06:00am NNW 7 9 - - - - - - - 17.2 1007.5 0.0
01/05:30am NNW 9 11 - - - - - - - 17.4 1007.6 0.0
01/05:00am NNW 8 9 - - - - - - - 17.3 1007.9 0.0
01/04:30am NNW 8 9 - - - - - - - 17.2 1008.0 0.0
01/04:00am NNW 7 8 - - - - - - - 17.0 1008.4 0.0
01/03:30am NW 3 5 - - - - - - - 16.1 1008.7 0.0
01/03:00am SW 2 3 - - - - - - - 15.7 1008.9 0.0
01/02:30am CALM 0 0 - - - - - - - 15.9 1008.9 0.0
01/02:00am SSW 2 2 - - - - - - - 15.9 1009.1 0.0
01/01:30am SSW 2 2 - - - - - - - 16.1 1009.4 0.0
01/01:00am SSW 3 4 - - - - - - - 16.1 1009.7 0.0
01/12:30am WSW 3 3 - - - - - - - 16.2 1010.0 0.0
01/12:00am CALM 0 0 - - - - - - - 16.1 1010.2 0.0
 
Date/Time
EDT
Wind Sea
Height
m
Swell Vis
km
Cloud Weather Temp
°C
Press
MSL
hPa
Rain since
9am
mm
Dir  Spd
kts
Gust
kts
Height
m
Period
s
Dir
28/11:30pm WNW 1 1 - - - - - - - 16.2 1010.6 0.0
28/11:00pm WNW 2 3 - - - - - - - 16.3 1010.7 0.0
28/10:30pm WNW 3 3 - - - - - - - 16.6 1010.8 0.0
28/10:00pm WNW 4 5 - - - - - - - 16.9 1011.1 0.0
28/09:30pm WNW 4 4 - - - - - - - 16.8 1011.1 0.0
28/09:00pm WNW 4 5 - - - - - - - 16.8 1011.0 0.0
28/08:30pm WNW 5 7 - - - - - - - 17.1 1010.7 0.0
28/08:00pm WNW 6 9 - - - - - - - 17.4 1010.8 0.0
28/07:30pm WNW 7 9 - - - - - - - 17.9 1010.8 0.0
28/07:00pm WNW 7 9 - - - - - - - 18.7 1010.8 0.0
28/06:30pm WNW 6 8 - - - - - - - 19.5 1010.8 0.0
28/06:00pm W 8 9 - - - - - - - 19.8 1010.8 0.0
28/05:30pm W 8 10 - - - - - - - 20.9 1010.7 0.0
28/05:00pm WNW 9 12 - - - - - - - 20.4 1010.9 0.0
28/04:30pm WNW 8 12 - - - - - - - 20.9 1011.1 0.0
28/04:00pm NW 9 12 - - - - - - - 19.8 1011.3 0.0
28/03:30pm NW 9 10 - - - - - - - 20.5 1011.5 0.0
28/03:00pm NNW 7 8 - - - - - - - 20.5 1011.5 0.0
28/02:30pm NNW 6 7 - - - - - - - 20.2 1011.8 0.0
28/02:00pm NNW 4 5 - - - - - - - 19.8 1012.0 0.0
28/01:30pm NW 6 8 - - - - - - - 20.9 1012.5 0.0
28/01:00pm N 5 7 - - - - - - - 21.2 1012.9 0.0
28/12:30pm NNW 4 6 - - - - - - - 20.6 1013.1 0.0
28/12:00pm NNW 5 7 - - - - - - - 19.8 1013.3 0.0
28/11:30am NW 4 5 - - - - - - - 19.8 1013.6 0.0
28/11:00am ENE 3 4 - - - - - - - 20.4 1013.7 0.0
28/10:30am SSW 2 5 - - - - - - - 19.7 1013.7 0.0
28/10:00am WSW 4 8 - - - - - - - 19.3 1013.8 0.0
28/09:30am WSW 6 9 - - - - - - - 17.9 1013.8 0.0
28/09:00am SW 4 5 - - - - - - - 17.5 1013.6 0.0
28/08:30am SW 3 4 - - - - - - - 16.9 1013.5 0.0
28/08:00am SW 2 3 - - - - - - - 15.7 1013.4 0.0
28/07:30am SW 3 4 - - - - - - - 15.1 1013.3 0.0
28/07:00am SSW 2 3 - - - - - - - 15.0 1013.0 0.0
28/06:30am SSW 3 4 - - - - - - - 15.2 1012.8 0.0
28/06:00am S 5 7 - - - - - - - 14.9 1012.7 0.0
28/05:30am S 5 7 - - - - - - - 14.5 1012.6 0.0
28/05:00am SW 4 5 - - - - - - - 14.0 1012.9 0.0
28/04:30am SW 4 5 - - - - - - - 14.4 1013.1 0.0
28/04:00am SW 4 5 - - - - - - - 15.3 1013.1 0.0
28/03:30am SSE 7 9 - - - - - - - 15.5 1013.0 0.0
28/03:00am S 6 8 - - - - - - - 15.2 1013.0 0.0
28/02:30am S 5 7 - - - - - - - 15.4 1013.0 0.0
28/02:00am S 4 7 - - - - - - - 15.5 1013.2 0.0
28/01:30am SSE 5 7 - - - - - - - 16.1 1013.6 0.0
28/01:00am S 5 7 - - - - - - - 16.3 1014.0 0.0
28/12:30am S 4 5 - - - - - - - 16.0 1014.2 0.0
28/12:00am S 3 4 - - - - - - - 15.9 1014.2 0.0
 
Date/Time
EDT
Wind Sea
Height
m
Swell Vis
km
Cloud Weather Temp
°C
Press
MSL
hPa
Rain since
9am
mm
Dir  Spd
kts
Gust
kts
Height
m
Period
s
Dir
27/11:30pm S 4 6 - - - - - - - 15.7 1014.2 0.0
27/11:00pm S 6 8 - - - - - - - 15.9 1014.1 0.0
27/10:30pm S 6 8 - - - - - - - 16.0 1013.9 0.0
27/10:00pm SSE 6 9 - - - - - - - 16.1 1013.9 0.0
27/09:30pm SSE 7 9 - - - - - - - 16.4 1014.0 0.0
27/09:00pm SSE 7 9 - - - - - - - 16.4 1013.9 0.0
27/08:30pm SSE 7 9 - - - - - - - 16.6 1013.8 0.0
27/08:00pm SE 7 9 - - - - - - - 16.7 1013.7 0.0
27/07:30pm SE 7 9 - - - - - - - 16.9 1013.6 0.0
27/07:00pm SE 6 8 - - - - - - - 16.9 1013.4 0.0
27/06:30pm ESE 7 9 - - - - - - - 17.0 1013.2 0.0
27/06:00pm ESE 9 10 - - - - - - - 17.1 1013.2 0.0
27/05:30pm ESE 8 10 - - - - - - - 17.2 1013.1 0.0
27/05:00pm SE 8 11 - - - - - - - 17.2 1013.1 0.0
27/04:30pm ESE 9 12 - - - - - - - 17.8 1013.2 0.0
27/04:00pm ESE 9 11 - - - - - - - 17.8 1013.1 0.0
27/03:30pm ESE 10 11 - - - - - - - 17.9 1013.4 0.0
27/03:00pm ESE 10 12 - - - - - - - 18.3 1013.7 0.0
27/02:30pm ESE 12 15 - - - - - - - 17.9 1013.9 0.0
27/02:00pm ESE 12 14 - - - - - - - 17.8 1013.8 0.0
27/01:30pm ESE 12 15 - - - - - - - 17.7 1013.8 0.0
27/01:00pm ESE 12 14 - - - - - - - 18.3 1014.1 0.0
27/12:30pm SE 11 15 - - - - - - - 17.4 1014.4 0.0
27/12:00pm SE 14 17 - - - - - - - 18.0 1014.4 0.0
27/11:30am SE 14 18 - - - - - - - 17.5 1014.6 0.0
27/11:00am SE 14 17 - - - - - - - 17.1 1014.6 0.0
27/10:30am SE 13 16 - - - - - - - 17.6 1014.8 0.0
27/10:00am SSE 11 13 - - - - - - - 17.7 1014.8 0.0
27/09:30am SSE 9 11 - - - - - - - 16.8 1015.3 0.0
27/09:00am SSE 10 13 - - - - - - - 16.8 1015.2 0.0
27/08:30am SSE 11 15 - - - - - - - 15.3 1015.0 0.0
27/08:00am SSE 13 16 - - - - - - - 15.3 1014.8 0.0
27/07:30am SSE 12 15 - - - - - - - 15.1 1014.7 0.0
27/07:00am SSE 10 13 - - - - - - - 14.9 1014.9 0.0
27/06:30am SSE 10 12 - - - - - - - 14.6 1014.8 0.0
27/06:00am SSE 10 13 - - - - - - - 14.9 1014.6 0.0
27/05:30am S 9 13 - - - - - - - 14.8 1014.3 0.0
27/05:00am SSE 12 15 - - - - - - - 14.8 1014.0 0.0
27/04:30am SSE 12 15 - - - - - - - 15.0 1014.1 0.0
27/04:00am SSE 13 15 - - - - - - - 15.1 1014.1 0.0
27/03:30am SSE 15 19 - - - - - - - 15.2 1013.8 0.0
27/03:00am SSE 15 19 - - - - - - - 15.5 1013.6 0.0
27/02:30am SSE 13 17 - - - - - - - 15.8 1013.9 0.0
27/02:00am SSE 13 16 - - - - - - - 16.0 1014.3 0.0
27/01:30am SSE 10 13 - - - - - - - 16.0 1014.8 0.0
27/01:00am SSE 9 12 - - - - - - - 16.1 1014.8 0.0
27/12:30am SSE 7 9 - - - - - - - 16.0 1015.0 0.0
27/12:00am SSE 7 9 - - - - - - - 16.0 1014.7 0.0
 
Date/Time
EDT
Wind Sea
Height
m
Swell Vis
km
Cloud Weather Temp
°C
Press
MSL
hPa
Rain since
9am
mm
Dir  Spd
kts
Gust
kts
Height
m
Period
s
Dir
26/11:30pm SSE 9 12 - - - - - - - 16.0 1014.6 0.0
26/11:00pm SSE 11 13 - - - - - - - 16.2 1014.5 0.0
26/10:30pm SSE 10 13 - - - - - - - 16.2 1014.4 0.0
26/10:00pm SSE 11 14 - - - - - - - 16.4 1014.2 0.0
26/09:30pm SE 12 15 - - - - - - - 16.6 1014.0 0.0
26/09:00pm SE 12 17 - - - - - - - 16.5 1013.5 0.0
26/08:30pm SE 14 17 - - - - - - - 16.6 1013.4 0.0
26/08:00pm SE 14 17 - - - - - - - 17.2 1013.2 0.0
26/07:30pm SE 8 13 - - - - - - - 17.6 1012.8 0.0
26/07:00pm WSW 2 2 - - - - - - - 17.9 1012.5 0.0
26/06:30pm WSW 4 7 - - - - - - - 18.1 1012.2 0.0
26/06:00pm W 10 14 - - - - - - - 18.2 1011.8 0.0
26/05:30pm W 12 16 - - - - - - - 19.5 1011.4 0.0
26/05:00pm W 13 18 - - - - - - - 19.4 1011.0 0.0
26/04:30pm W 12 17 - - - - - - - 19.7 1011.1 0.0
26/04:00pm WNW 11 16 - - - - - - - 19.3 1011.0 0.0
26/03:30pm W 11 15 - - - - - - - 21.1 1010.9 0.0
26/03:00pm WNW 10 15 - - - - - - - 21.0 1011.0 0.0
26/02:30pm WNW 9 13 - - - - - - - 20.2 1010.8 0.0
26/02:00pm WNW 9 12 - - - - - - - 19.4 1010.8 0.0
26/01:30pm WNW 9 13 - - - - - - - 19.7 1010.7 0.0
26/01:00pm WNW 9 13 - - - - - - - 19.6 1010.5 0.0
26/12:30pm WNW 8 11 - - - - - - - 19.8 1010.6 0.0
26/12:00pm W 9 13 - - - - - - - 19.8 1010.5 0.0
26/11:30am W 11 14 - - - - - - - 18.6 1010.4 0.0
26/11:00am W 10 16 - - - - - - - 18.2 1010.2 0.0
26/10:30am W 12 15 - - - - - - - 17.4 1009.8 0.0
26/10:00am W 12 15 - - - - - - - 16.8 1009.5 0.0

Other formats

Comma delimited format used in spreadsheet applications
http://www.bom.gov.au/fwo/IDT60701/IDT60701.95985.axf

JavaScript Object Notation format (JSON) in row-major order
http://www.bom.gov.au/fwo/IDT60701/IDT60701.95985.json

Data quality

Most of these data are generated automatically and are frequently updated. Quality checks on data are not normally performed. It is possible for incorrect values to appear. Refer to information at About Latest Weather Observations and please check the disclaimer before using these data.